Time;durP1;ratioP1;P1;durP2;ratioP2;P2;SDS_P1;SDS_P2;PMS_P1;PMS_P2;Temp;Humidity;BMP_temperature;BMP_pressure;BME280_temperature;BME280_humidity;BME280_pressure;Samples;Min_cycle;Max_cycle;Signal;HPM_P1;HPM_P2
2023/04/20 00:01:15;;;;;;;15.20;3.80;;;;;;;12.09;58.81;99798.45;102620;1296;600915;-68
2023/04/20 00:03:44;;;;;;;21.70;4.60;;;;;;;12.09;58.92;99790.66;104746;1270;59179;-68
2023/04/20 00:06:12;;;;;;;18.60;4.10;;;;;;;12.11;59.05;99786.45;104846;1267;59508;-69
2023/04/20 00:08:41;;;;;;;23.90;4.30;;;;;;;12.13;59.13;99786.08;104918;1269;64986;-70
2023/04/20 00:11:09;;;;;;;17.90;4.30;;;;;;;12.12;59.13;99786.88;104868;1270;59828;-69
2023/04/20 00:13:37;;;;;;;16.50;4.10;;;;;;;12.12;59.22;99786.50;104629;1267;65610;-69
2023/04/20 00:16:06;;;;;;;22.10;4.00;;;;;;;12.12;59.06;99786.52;105063;1264;154544;-70
2023/04/20 00:18:35;;;;;;;24.60;4.10;;;;;;;12.11;59.23;99788.17;105022;1264;59429;-70
2023/04/20 00:21:04;;;;;;;21.70;4.00;;;;;;;12.11;59.15;99785.55;105041;1267;64860;-70
2023/04/20 00:23:33;;;;;;;21.10;4.70;;;;;;;12.12;58.93;99782.45;104975;1267;59135;-70
2023/04/20 00:26:01;;;;;;;23.30;4.00;;;;;;;12.13;58.92;99778.30;105118;1264;65381;-71
2023/04/20 00:28:30;;;;;;;23.80;4.10;;;;;;;12.14;58.86;99774.70;105073;1267;59607;-68
2023/04/20 00:30:58;;;;;;;21.90;4.40;;;;;;;12.13;58.86;99776.70;105079;1263;60017;-69
2023/04/20 00:33:26;;;;;;;22.00;4.30;;;;;;;12.11;59.01;99773.15;105013;1269;66686;-69
2023/04/20 00:35:55;;;;;;;17.20;3.80;;;;;;;12.09;59.06;99768.30;104770;1264;59750;-69
2023/04/20 00:38:24;;;;;;;17.30;4.20;;;;;;;12.07;59.03;99763.50;105256;1264;65277;-70
2023/04/20 00:40:54;;;;;;;23.90;4.40;;;;;;;12.05;59.01;99762.11;105799;1264;59761;-71
2023/04/20 00:43:23;;;;;;;19.10;5.10;;;;;;;12.03;59.08;99760.67;104706;1271;59830;-69
2023/04/20 00:45:52;;;;;;;21.00;4.70;;;;;;;12.02;59.00;99758.98;104971;1264;65909;-71
2023/04/20 00:48:21;;;;;;;19.70;4.10;;;;;;;12.03;58.95;99755.38;104904;1269;59868;-69
2023/04/20 00:50:49;;;;;;;18.60;4.30;;;;;;;12.00;58.96;99751.05;105155;1264;64797;-70
2023/04/20 00:53:17;;;;;;;18.90;4.50;;;;;;;11.98;59.12;99749.90;105248;1259;59597;-70
2023/04/20 00:55:45;;;;;;;27.60;4.60;;;;;;;11.96;59.16;99745.13;105143;1257;59650;-69
2023/04/20 00:58:13;;;;;;;19.60;4.40;;;;;;;11.95;59.31;99745.08;105190;1259;65767;-70
2023/04/20 01:00:42;;;;;;;17.50;4.20;;;;;;;11.95;59.40;99739.78;105080;1263;59956;-70
2023/04/20 01:03:11;;;;;;;12.60;4.00;;;;;;;11.95;59.41;99731.58;105186;1262;65447;-70
2023/04/20 01:05:39;;;;;;;14.30;4.00;;;;;;;11.94;59.45;99728.59;105436;1260;59683;-69
2023/04/20 01:08:08;;;;;;;21.50;3.90;;;;;;;11.93;59.57;99725.48;105420;1260;59662;-70
2023/04/20 01:10:36;;;;;;;16.20;4.10;;;;;;;11.92;59.69;99726.27;105240;1267;66101;-70
2023/04/20 01:13:07;;;;;;;17.90;4.00;;;;;;;11.92;59.69;99726.27;105415;1258;59850;-69
2023/04/20 01:15:35;;;;;;;18.80;4.10;;;;;;;11.92;59.91;99726.06;105106;1259;65570;-70
2023/04/20 01:18:05;;;;;;;18.00;4.00;;;;;;;11.90;60.26;99724.02;105398;1259;59666;-71
2023/04/20 01:20:33;;;;;;;16.90;3.90;;;;;;;11.88;60.39;99722.45;105196;1260;59731;-70
2023/04/20 01:23:02;;;;;;;18.10;4.20;;;;;;;11.88;60.57;99723.56;105192;1259;65784;-70
2023/04/20 01:25:30;;;;;;;15.40;3.90;;;;;;;11.88;60.72;99723.20;105133;1263;59558;-70
2023/04/20 01:28:00;;;;;;;17.50;3.90;;;;;;;11.88;61.07;99726.35;105190;1261;65537;-71
2023/04/20 01:30:30;;;;;;;16.90;3.80;;;;;;;11.87;61.31;99727.67;105323;1258;60284;-68
2023/04/20 01:32:58;;;;;;;21.30;4.20;;;;;;;11.86;61.37;99724.02;105441;1258;59777;-69
2023/04/20 01:35:27;;;;;;;16.80;4.30;;;;;;;11.85;61.73;99720.60;105149;1263;65565;-70
2023/04/20 01:37:55;;;;;;;18.70;3.90;;;;;;;11.82;61.95;99715.75;105267;1259;59688;-69
2023/04/20 01:40:24;;;;;;;19.50;4.20;;;;;;;11.78;62.19;99709.78;105300;1258;65372;-69
2023/04/20 01:42:53;;;;;;;22.00;4.20;;;;;;;11.77;62.38;99704.95;105056;1265;59546;-71
2023/04/20 01:45:22;;;;;;;21.30;4.30;;;;;;;11.73;62.73;99702.82;105136;1259;59645;-70
2023/04/20 01:47:51;;;;;;;16.80;3.70;;;;;;;11.69;62.89;99703.05;105070;1263;66104;-69
2023/04/20 01:50:19;;;;;;;16.40;3.20;;;;;;;11.65;63.17;99700.77;105164;1262;59548;-73
2023/04/20 01:52:48;;;;;;;19.60;3.80;;;;;;;11.62;63.41;99701.98;105023;1260;65555;-67
2023/04/20 01:55:18;;;;;;;14.50;3.50;;;;;;;11.57;63.49;99703.63;105088;1263;59653;-68
2023/04/20 01:57:47;;;;;;;19.30;4.00;;;;;;;11.52;63.73;99699.18;105125;1259;59674;-69
2023/04/20 02:00:16;;;;;;;19.50;4.10;;;;;;;11.48;63.99;99693.95;105262;1262;65930;-67
2023/04/20 02:02:44;;;;;;;15.40;4.00;;;;;;;11.46;64.15;99691.64;105173;1266;59511;-69
2023/04/20 02:05:13;;;;;;;13.00;3.80;;;;;;;11.45;64.37;99688.76;105445;1260;65312;-70
2023/04/20 02:07:41;;;;;;;16.30;3.60;;;;;;;11.44;64.52;99689.89;105245;1260;59699;-69
2023/04/20 02:10:10;;;;;;;14.20;3.80;;;;;;;11.43;64.55;99687.54;105263;1259;59807;-69
2023/04/20 02:12:39;;;;;;;16.20;3.70;;;;;;;11.41;64.79;99690.19;105277;1260;64799;-71
2023/04/20 02:15:10;;;;;;;17.90;4.50;;;;;;;11.40;64.90;99689.04;105432;1260;59785;-70
2023/04/20 02:17:40;;;;;;;18.40;4.00;;;;;;;11.37;64.95;99690.00;105262;1260;65563;-69
2023/04/20 02:20:09;;;;;;;13.30;3.60;;;;;;;11.33;65.06;99687.73;105337;1262;59656;-69
2023/04/20 02:22:38;;;;;;;18.30;4.10;;;;;;;11.31;65.18;99690.09;105117;1259;59773;-69
2023/04/20 02:25:08;;;;;;;21.40;4.40;;;;;;;11.30;65.25;99690.34;105287;1259;65611;-69
2023/04/20 02:27:37;;;;;;;20.70;4.80;;;;;;;11.28;65.37;99687.13;105112;1265;60256;-68
2023/04/20 02:30:07;;;;;;;19.10;4.60;;;;;;;11.26;65.44;99688.95;105221;1264;64518;-76
2023/04/20 02:32:35;;;;;;;12.30;3.90;;;;;;;11.25;65.54;99687.77;105285;1258;59543;-70
2023/04/20 02:35:05;;;;;;;26.00;4.20;;;;;;;11.25;65.61;99681.63;105161;1263;59635;-69
2023/04/20 02:37:33;;;;;;;17.80;4.30;;;;;;;11.23;65.70;99679.23;105074;1259;64966;-69
2023/04/20 02:40:01;;;;;;;22.40;4.50;;;;;;;11.20;65.82;99674.89;105521;1259;59773;-69
2023/04/20 02:42:30;;;;;;;20.00;4.10;;;;;;;11.18;65.87;99671.16;105978;1255;65575;-68
2023/04/20 02:45:00;;;;;;;19.00;4.00;;;;;;;11.17;65.82;99667.14;105429;1255;59738;-68
2023/04/20 02:47:29;;;;;;;17.80;4.30;;;;;;;11.17;65.87;99666.11;105303;1256;59738;-68
2023/04/20 02:49:57;;;;;;;22.70;4.10;;;;;;;11.17;65.86;99665.62;105636;1258;65697;-68
2023/04/20 02:52:25;;;;;;;20.80;4.00;;;;;;;11.17;65.95;99672.86;105558;1256;59580;-68
2023/04/20 02:54:56;;;;;;;17.90;4.10;;;;;;;11.18;65.89;99676.27;105684;1254;65575;-67
2023/04/20 02:57:24;;;;;;;17.50;4.10;;;;;;;11.20;65.87;99670.83;105580;1254;59545;-66
2023/04/20 02:59:53;;;;;;;20.30;4.30;;;;;;;11.20;65.87;99668.55;105646;1254;59717;-67
2023/04/20 03:02:26;;;;;;;19.10;4.20;;;;;;;11.21;65.88;99663.18;105632;1257;66110;-68
2023/04/20 03:04:55;;;;;;;18.20;4.00;;;;;;;11.22;65.82;99658.53;105758;1254;59764;-67
2023/04/20 03:07:25;;;;;;;20.30;4.20;;;;;;;11.23;65.76;99651.54;105589;1254;65521;-68
2023/04/20 03:09:53;;;;;;;18.20;4.20;;;;;;;11.22;65.78;99645.48;105643;1259;59776;-67
2023/04/20 03:12:22;;;;;;;16.60;4.20;;;;;;;11.21;65.74;99644.31;105538;1254;59750;-68
2023/04/20 03:15:05;;;;;;;15.50;4.20;;;;;;;11.19;65.76;99643.77;105897;1254;64374;-68
2023/04/20 03:17:56;;;;;;;18.70;4.00;;;;;;;11.17;65.73;99645.92;105239;1257;59953;-67
2023/04/20 03:20:25;;;;;;;17.80;3.90;;;;;;;11.14;65.81;99642.45;105364;1259;65608;-68
2023/04/20 03:22:54;;;;;;;22.50;4.20;;;;;;;11.14;65.86;99641.63;105692;1254;59651;-67
2023/04/20 03:25:24;;;;;;;20.60;3.70;;;;;;;11.11;65.91;99637.96;105851;1259;59513;-71
2023/04/20 03:27:58;;;;;;;14.80;3.70;;;;;;;11.10;65.91;99637.63;105604;1260;65669;-69
2023/04/20 03:30:27;;;;;;;21.80;3.60;;;;;;;11.08;66.05;99637.17;105616;1258;59699;-71
2023/04/20 03:33:00;;;;;;;18.00;3.80;;;;;;;11.06;66.12;99628.26;105485;1254;65339;-69
2023/04/20 03:35:29;;;;;;;13.10;3.60;;;;;;;11.05;66.23;99627.15;105468;1260;59704;-68
2023/04/20 03:37:58;;;;;;;17.10;3.80;;;;;;;11.05;66.40;99627.68;105288;1254;59571;-69
2023/04/20 03:40:27;;;;;;;17.20;4.30;;;;;;;11.06;66.38;99627.77;105739;1259;65372;-73
2023/04/20 03:42:55;;;;;;;16.00;3.80;;;;;;;11.07;66.36;99630.52;105556;1254;59637;-79
2023/04/20 03:45:23;;;;;;;18.30;3.40;;;;;;;11.06;66.50;99629.81;105412;1259;65356;-71
2023/04/20 03:47:51;;;;;;;21.90;4.80;;;;;;;11.06;66.44;99632.30;105593;1256;59759;-71
2023/04/20 03:50:21;;;;;;;24.10;4.30;;;;;;;11.06;66.49;99632.15;105420;1256;59717;-71
2023/04/20 03:52:49;;;;;;;21.30;3.90;;;;;;;11.07;66.51;99635.88;105564;1258;66306;-71
2023/04/20 03:55:18;;;;;;;18.70;4.00;;;;;;;11.09;66.45;99637.15;105586;1256;59510;-71
2023/04/20 03:57:51;;;;;;;14.40;3.80;;;;;;;11.10;66.48;99638.66;105657;1254;64634;-72
2023/04/20 04:00:19;;;;;;;19.10;3.60;;;;;;;11.11;66.49;99633.94;105346;1256;59572;-72
2023/04/20 04:02:48;;;;;;;19.40;3.80;;;;;;;11.12;66.47;99633.48;105613;1254;59655;-72
2023/04/20 04:05:35;;;;;;;13.60;3.70;;;;;;;11.12;66.52;99635.13;105570;1261;65874;-73
2023/04/20 04:08:03;;;;;;;17.40;4.00;;;;;;;11.10;66.59;99631.09;105662;1254;59628;-72
2023/04/20 04:10:32;;;;;;;22.80;4.30;;;;;;;11.07;66.62;99629.59;105609;1254;65594;-74
2023/04/20 04:13:00;;;;;;;17.40;3.90;;;;;;;11.06;66.67;99627.70;105615;1254;60443;-73
2023/04/20 04:15:29;;;;;;;15.80;4.00;;;;;;;11.05;66.71;99625.71;105499;1254;60527;-72
2023/04/20 04:18:01;;;;;;;22.20;4.10;;;;;;;11.05;66.85;99624.31;105523;1254;66416;-73
2023/04/20 04:20:31;;;;;;;15.00;3.80;;;;;;;11.06;66.92;99624.09;105595;1256;60341;-73
2023/04/20 04:23:00;;;;;;;14.70;4.20;;;;;;;11.04;67.03;99622.68;105499;1258;65496;-72
2023/04/20 04:25:39;;;;;;;17.20;3.80;;;;;;;11.02;67.19;99622.99;105497;1254;60477;-72
2023/04/20 04:28:07;;;;;;;18.60;3.90;;;;;;;11.00;67.31;99620.58;105527;1259;60335;-70
2023/04/20 04:30:37;;;;;;;18.30;4.10;;;;;;;10.97;67.54;99618.88;105480;1257;66478;-73
2023/04/20 04:33:08;;;;;;;19.20;4.00;;;;;;;10.97;67.59;99621.52;105586;1254;60439;-70
2023/04/20 04:35:40;;;;;;;19.00;4.20;;;;;;;10.98;67.69;99619.65;105440;1256;64580;-71
2023/04/20 04:38:11;;;;;;;14.60;4.50;;;;;;;10.98;67.76;99617.77;105609;1254;60421;-72
2023/04/20 04:40:44;;;;;;;16.30;4.30;;;;;;;10.98;67.87;99612.95;105250;1256;60340;-71
2023/04/20 04:43:23;;;;;;;14.80;4.10;;;;;;;10.98;68.03;99605.02;105507;1257;65931;-71
2023/04/20 04:46:12;;;;;;;15.70;4.20;;;;;;;10.98;68.17;99602.73;105493;1254;60539;-70
2023/04/20 04:48:41;;;;;;;13.40;3.90;;;;;;;10.99;68.26;99604.30;105291;1256;64688;-72
2023/04/20 04:51:10;;;;;;;18.90;3.80;;;;;;;10.99;68.42;99597.20;105555;1255;60428;-70
2023/04/20 04:53:38;;;;;;;13.10;4.30;;;;;;;11.01;68.51;99597.58;105547;1253;61016;-72
2023/04/20 04:56:06;;;;;;;19.10;4.60;;;;;;;11.02;68.62;99588.29;105535;1255;66675;-71
2023/04/20 04:58:34;;;;;;;15.10;4.10;;;;;;;11.03;68.68;99587.70;105651;1254;60566;-72
2023/04/20 05:01:03;;;;;;;18.80;4.40;;;;;;;11.03;68.82;99587.03;105722;1257;65569;-72
2023/04/20 05:03:31;;;;;;;15.50;4.00;;;;;;;11.01;68.86;99582.76;105633;1255;60370;-72
2023/04/20 05:05:59;;;;;;;16.40;4.70;;;;;;;11.03;68.94;99580.30;105691;1254;60461;-73
2023/04/20 05:08:28;;;;;;;15.90;4.30;;;;;;;11.04;68.95;99580.23;105615;1257;66693;-70
2023/04/20 05:10:57;;;;;;;13.90;4.00;;;;;;;11.05;69.00;99579.73;105558;1254;60545;-72
2023/04/20 05:13:25;;;;;;;13.30;4.20;;;;;;;11.06;69.03;99580.83;105674;1254;65439;-71
2023/04/20 05:15:53;;;;;;;17.40;3.90;;;;;;;11.06;69.13;99575.88;105677;1254;60372;-71
2023/04/20 05:18:21;;;;;;;17.40;4.40;;;;;;;11.06;69.10;99572.17;105554;1257;60330;-72
2023/04/20 05:20:50;;;;;;;14.60;3.80;;;;;;;11.07;69.23;99573.84;105578;1258;66944;-71
2023/04/20 05:23:19;;;;;;;12.60;3.60;;;;;;;11.10;69.24;99572.04;105616;1254;60444;-71
2023/04/20 05:25:47;;;;;;;11.60;3.10;;;;;;;11.10;69.18;99574.84;105572;1257;64539;-72
2023/04/20 05:28:17;;;;;;;10.60;3.20;;;;;;;11.12;69.24;99577.98;105631;1256;60524;-72
2023/04/20 05:30:54;;;;;;;10.70;3.50;;;;;;;11.15;69.23;99573.64;105768;1254;60505;-70
2023/04/20 05:33:23;;;;;;;9.70;3.40;;;;;;;11.16;69.25;99581.98;105426;1260;66633;-71
2023/04/20 05:35:56;;;;;;;9.00;2.80;;;;;;;11.17;69.20;99584.94;105771;1257;60469;-72
2023/04/20 05:38:24;;;;;;;9.70;3.30;;;;;;;11.18;69.24;99592.94;105502;1258;65545;-71
2023/04/20 05:40:53;;;;;;;8.40;3.20;;;;;;;11.17;69.19;99592.66;105539;1256;60496;-71
2023/04/20 05:43:21;;;;;;;10.20;3.50;;;;;;;11.15;69.21;99597.64;105685;1254;60551;-72
2023/04/20 05:45:50;;;;;;;11.70;3.40;;;;;;;11.15;69.23;99600.21;105478;1254;66492;-71
2023/04/20 05:48:18;;;;;;;6.30;2.90;;;;;;;11.17;69.15;99598.09;105637;1257;60432;-73
2023/04/20 05:50:47;;;;;;;8.00;2.90;;;;;;;11.17;69.22;99599.34;105777;1254;65480;-71
2023/04/20 05:53:15;;;;;;;6.80;2.80;;;;;;;11.17;69.14;99602.69;105595;1254;60481;-70
2023/04/20 05:55:43;;;;;;;8.40;2.90;;;;;;;11.17;69.17;99602.91;105634;1254;61116;-70
2023/04/20 05:58:12;;;;;;;8.00;2.60;;;;;;;11.17;69.14;99603.80;105545;1257;66531;-72
2023/04/20 06:00:40;;;;;;;12.50;3.00;;;;;;;11.17;69.06;99600.98;105668;1256;60336;-71
2023/04/20 06:03:13;;;;;;;7.90;2.80;;;;;;;11.17;69.15;99598.81;105843;1254;65911;-71
2023/04/20 06:06:14;;;;;;;6.70;2.70;;;;;;;11.16;69.20;99598.63;105829;1258;61348;-71
2023/04/20 06:08:45;;;;;;;11.10;3.20;;;;;;;11.17;69.21;99594.65;105754;1258;60462;-72
2023/04/20 06:11:14;;;;;;;8.80;2.50;;;;;;;11.17;69.19;99594.09;105407;1255;66672;-74
2023/04/20 06:13:42;;;;;;;9.70;2.80;;;;;;;11.19;69.17;99593.77;105636;1255;60469;-71
2023/04/20 06:16:10;;;;;;;10.10;3.50;;;;;;;11.21;69.07;99592.73;105632;1254;64910;-73
2023/04/20 06:18:42;;;;;;;10.00;6.20;;;;;;;11.19;69.24;99591.94;105777;1259;60448;-72
2023/04/20 06:21:12;;;;;;;10.20;3.30;;;;;;;11.19;69.14;99585.81;105961;1254;60381;-73
2023/04/20 06:23:48;;;;;;;13.70;3.20;;;;;;;11.20;69.24;99584.46;105692;1254;63712;-71
2023/04/20 06:26:17;;;;;;;12.90;3.40;;;;;;;11.20;69.29;99585.71;105774;1254;60545;-72
2023/04/20 06:28:47;;;;;;;10.10;3.20;;;;;;;11.21;69.25;99580.90;106922;1254;64617;-73
2023/04/20 06:31:16;;;;;;;9.10;3.30;;;;;;;11.20;69.35;99583.40;105540;1256;60410;-73
2023/04/20 06:33:44;;;;;;;6.90;2.80;;;;;;;11.22;69.42;99584.32;105560;1254;60352;-72
2023/04/20 06:36:12;;;;;;;7.80;2.90;;;;;;;11.22;69.46;99584.67;105781;1257;66714;-74
2023/04/20 06:38:40;;;;;;;17.00;3.20;;;;;;;11.22;69.59;99583.96;105546;1254;60533;-72
2023/04/20 06:41:09;;;;;;;7.10;3.00;;;;;;;11.24;69.60;99582.36;105657;1256;65535;-70
2023/04/20 06:43:37;;;;;;;12.20;3.40;;;;;;;11.25;69.53;99581.51;105668;1256;60359;-70
2023/04/20 06:46:05;;;;;;;12.70;3.60;;;;;;;11.25;69.52;99581.38;105607;1257;60427;-70
2023/04/20 06:48:37;;;;;;;20.20;4.30;;;;;;;11.25;69.60;99576.29;105425;1254;64924;-73
2023/04/20 06:51:25;;;;;;;13.40;3.30;;;;;;;11.27;69.56;99575.38;105659;1257;60440;-77
2023/04/20 06:53:54;;;;;;;14.80;4.80;;;;;;;11.28;69.58;99573.64;105895;1259;64814;-68
2023/04/20 06:56:23;;;;;;;14.10;3.10;;;;;;;11.30;69.60;99572.94;105563;1257;60526;-70
2023/04/20 06:58:51;;;;;;;9.00;2.90;;;;;;;11.32;69.70;99571.66;105970;1254;60468;-67
2023/04/20 07:01:19;;;;;;;9.50;3.30;;;;;;;11.34;69.71;99570.23;105598;1258;66756;-68
2023/04/20 07:03:49;;;;;;;13.00;3.30;;;;;;;11.37;69.69;99572.80;105657;1256;60445;-69
2023/04/20 07:06:17;;;;;;;10.50;3.00;;;;;;;11.38;69.69;99571.97;106171;1254;65429;-73
2023/04/20 07:08:45;;;;;;;11.60;3.50;;;;;;;11.41;69.74;99575.94;105686;1256;60588;-72
2023/04/20 07:11:14;;;;;;;11.20;3.40;;;;;;;11.44;69.81;99570.91;105669;1257;60335;-72
2023/04/20 07:13:42;;;;;;;11.40;3.50;;;;;;;11.45;69.86;99573.23;105557;1258;66213;-72
2023/04/20 07:16:10;;;;;;;10.80;3.90;;;;;;;11.46;69.77;99570.86;105508;1255;59230;-68
2023/04/20 07:18:39;;;;;;;12.30;3.40;;;;;;;11.45;69.74;99570.09;105833;1258;65028;-69
2023/04/20 07:21:08;;;;;;;11.10;3.60;;;;;;;11.45;69.88;99571.63;105729;1254;60411;-68
2023/04/20 07:23:37;;;;;;;10.20;3.60;;;;;;;11.45;69.80;99572.38;105565;1256;60547;-70
2023/04/20 07:26:06;;;;;;;12.20;3.80;;;;;;;11.44;69.83;99572.83;105451;1254;65705;-70
2023/04/20 07:28:39;;;;;;;14.00;4.00;;;;;;;11.44;69.77;99572.63;106185;1255;62010;-71
2023/04/20 07:31:11;;;;;;;15.80;4.00;;;;;;;11.44;69.73;99575.14;105621;1258;63727;-69
2023/04/20 07:33:39;;;;;;;13.30;3.70;;;;;;;11.44;69.73;99576.53;105479;1254;60523;-72
2023/04/20 07:36:08;;;;;;;9.90;3.20;;;;;;;11.45;69.89;99574.46;105678;1255;60317;-70
2023/04/20 07:38:39;;;;;;;15.40;3.90;;;;;;;11.46;69.81;99575.06;105378;1258;66920;-73
2023/04/20 07:41:09;;;;;;;12.10;3.50;;;;;;;11.45;69.84;99573.06;105343;1260;60406;-68
2023/04/20 07:43:40;;;;;;;12.90;3.60;;;;;;;11.45;69.85;99574.66;105661;1256;65000;-67
2023/04/20 07:46:08;;;;;;;12.40;3.80;;;;;;;11.45;69.86;99574.52;105639;1254;60321;-72
2023/04/20 07:48:38;;;;;;;14.70;3.90;;;;;;;11.43;69.96;99571.64;105436;1258;60642;-70
2023/04/20 07:51:06;;;;;;;15.60;4.30;;;;;;;11.43;69.91;99570.58;105459;1254;66719;-69
2023/04/20 07:53:34;;;;;;;20.90;9.00;;;;;;;11.44;69.88;99570.69;105497;1259;60501;-70
2023/04/20 07:56:06;;;;;;;55.70;12.70;;;;;;;11.45;70.01;99567.91;105567;1254;65550;-74
2023/04/20 07:58:37;;;;;;;120.30;20.80;;;;;;;11.48;69.89;99570.19;105262;1254;60681;-71
2023/04/20 08:01:06;;;;;;;68.60;13.90;;;;;;;11.50;69.92;99571.42;105417;1255;60519;-72
2023/04/20 08:03:34;;;;;;;26.40;11.10;;;;;;;11.51;70.22;99572.03;105551;1256;66738;-70
2023/04/20 08:06:12;;;;;;;29.60;8.10;;;;;;;11.53;70.15;99569.87;105407;1256;60487;-70
2023/04/20 08:08:44;;;;;;;87.50;13.80;;;;;;;11.55;70.15;99568.59;105508;1256;64732;-69
2023/04/20 08:11:12;;;;;;;31.90;15.90;;;;;;;11.56;70.15;99568.83;105414;1254;60457;-69
2023/04/20 08:13:41;;;;;;;25.70;14.50;;;;;;;11.59;70.13;99567.05;105803;1254;61196;-70
2023/04/20 08:16:10;;;;;;;16.40;9.60;;;;;;;11.61;70.13;99566.31;105649;1256;66788;-69
2023/04/20 08:18:39;;;;;;;29.90;21.50;;;;;;;11.62;70.15;99569.54;105330;1256;60435;-72
2023/04/20 08:21:08;;;;;;;26.30;17.20;;;;;;;11.63;70.17;99571.92;105477;1256;65611;-69
2023/04/20 08:23:36;;;;;;;19.80;16.50;;;;;;;11.62;70.22;99571.43;105512;1254;60452;-70
2023/04/20 08:26:04;;;;;;;19.10;13.20;;;;;;;11.60;70.20;99570.23;105733;1254;60518;-70
2023/04/20 08:28:33;;;;;;;17.30;9.40;;;;;;;11.59;70.30;99568.72;105546;1258;66675;-69
2023/04/20 08:31:01;;;;;;;12.90;7.10;;;;;;;11.60;70.31;99570.48;105703;1254;60857;-70
2023/04/20 08:33:31;;;;;;;12.80;7.30;;;;;;;11.60;70.27;99573.59;105510;1254;65237;-73
2023/04/20 08:35:59;;;;;;;10.60;5.90;;;;;;;11.61;70.22;99572.31;105698;1257;60445;-71
2023/04/20 08:38:29;;;;;;;12.30;5.20;;;;;;;11.61;70.32;99571.41;105575;1253;60466;-70
2023/04/20 08:41:01;;;;;;;10.70;6.10;;;;;;;11.60;70.31;99570.66;105303;1254;66886;-70
2023/04/20 08:43:30;;;;;;;196.60;17.30;;;;;;;11.60;70.29;99571.98;105358;1254;60547;-72
2023/04/20 08:46:00;;;;;;;26.10;5.70;;;;;;;11.64;70.32;99572.89;105296;1261;65551;-71
2023/04/20 08:48:35;;;;;;;24.00;5.00;;;;;;;11.65;70.30;99573.96;105310;1257;61488;-70
2023/04/20 08:51:04;;;;;;;9.20;3.70;;;;;;;11.63;70.30;99572.73;105263;1258;61028;-71
2023/04/20 08:53:32;;;;;;;9.40;3.30;;;;;;;11.62;70.29;99573.40;105134;1256;67171;-68
2023/04/20 08:56:01;;;;;;;12.60;3.10;;;;;;;11.63;70.40;99575.45;105247;1258;60467;-72
2023/04/20 08:58:33;;;;;;;14.00;3.20;;;;;;;11.64;70.39;99574.95;105377;1256;65433;-70
2023/04/20 09:01:01;;;;;;;10.10;3.60;;;;;;;11.67;70.47;99577.70;105012;1254;60801;-70
2023/04/20 09:03:31;;;;;;;8.60;3.00;;;;;;;11.67;70.28;99579.44;105581;1255;60544;-70
2023/04/20 09:06:00;;;;;;;9.50;2.60;;;;;;;11.67;70.44;99575.52;105296;1254;66869;-71
2023/04/20 09:08:36;;;;;;;10.50;2.40;;;;;;;11.69;70.57;99578.20;105641;1258;60471;-71
2023/04/20 09:11:04;;;;;;;8.70;2.10;;;;;;;11.67;70.50;99582.89;105149;1256;65619;-69
2023/04/20 09:13:34;;;;;;;9.80;2.30;;;;;;;11.66;70.48;99581.98;105405;1255;60509;-70
2023/04/20 09:16:10;;;;;;;8.50;2.50;;;;;;;11.68;70.52;99581.59;105480;1257;60319;-71
2023/04/20 09:18:39;;;;;;;5.90;2.20;;;;;;;11.70;70.62;99581.10;105465;1260;66809;-73
2023/04/20 09:21:12;;;;;;;9.20;2.40;;;;;;;11.72;70.60;99584.27;105820;1256;60435;-70
2023/04/20 09:23:40;;;;;;;9.20;2.40;;;;;;;11.72;70.65;99578.91;105531;1256;73452;-70
2023/04/20 09:26:16;;;;;;;9.30;2.50;;;;;;;11.72;70.55;99582.12;105494;1257;60472;-75
2023/04/20 09:28:45;;;;;;;8.50;2.10;;;;;;;11.72;70.53;99581.91;105499;1259;60476;-70
2023/04/20 09:31:20;;;;;;;6.80;2.10;;;;;;;11.74;70.52;99583.88;106029;1258;66747;-71
2023/04/20 09:34:00;;;;;;;5.70;2.20;;;;;;;11.73;70.54;99581.08;105686;1253;60440;-69
2023/04/20 09:36:45;;;;;;;8.30;2.30;;;;;;;11.74;70.56;99575.55;105528;1256;65567;-71
2023/04/20 09:39:19;;;;;;;6.60;2.70;;;;;;;11.75;70.63;99575.83;105573;1255;61019;-69
2023/04/20 09:41:54;;;;;;;6.80;2.30;;;;;;;11.78;70.70;99575.94;105243;1256;60547;-71
2023/04/20 09:44:23;;;;;;;6.40;2.00;;;;;;;11.80;70.71;99573.64;105803;1254;66809;-69
2023/04/20 09:46:52;;;;;;;6.70;2.30;;;;;;;11.83;70.59;99571.61;106066;1254;61217;-70
2023/04/20 09:49:20;;;;;;;6.80;2.10;;;;;;;11.85;70.68;99568.21;106540;1256;65240;-71
2023/04/20 09:51:49;;;;;;;7.00;2.20;;;;;;;11.85;70.65;99562.52;105734;1254;60478;-69
2023/04/20 09:54:18;;;;;;;6.80;1.90;;;;;;;11.88;70.72;99567.15;105809;1256;60507;-73
2023/04/20 09:56:46;;;;;;;16.40;3.20;;;;;;;11.89;70.66;99565.90;105960;1260;66496;-77
2023/04/20 09:59:16;;;;;;;16.10;3.20;;;;;;;11.88;70.60;99564.23;105951;1256;60545;-75
2023/04/20 10:01:44;;;;;;;24.90;2.90;;;;;;;11.87;70.48;99563.78;105751;1256;64331;-70
2023/04/20 10:04:13;;;;;;;6.30;2.40;;;;;;;11.88;70.65;99566.88;106098;1254;60530;-70
2023/04/20 10:06:53;;;;;;;9.50;2.70;;;;;;;11.91;70.61;99568.33;105680;1254;60536;-70
2023/04/20 10:09:27;;;;;;;10.80;2.80;;;;;;;11.93;70.55;99566.16;105715;1261;66571;-69
2023/04/20 10:12:08;;;;;;;8.40;2.50;;;;;;;11.96;70.58;99564.61;105565;1256;60657;-68
2023/04/20 10:14:36;;;;;;;9.20;2.90;;;;;;;11.99;70.56;99564.52;105738;1256;65371;-71
2023/04/20 10:17:05;;;;;;;10.60;2.50;;;;;;;12.01;70.60;99563.56;105746;1258;60439;-69
2023/04/20 10:19:44;;;;;;;7.60;2.40;;;;;;;12.05;70.56;99570.46;105754;1261;60546;-70
2023/04/20 10:22:23;;;;;;;7.80;2.40;;;;;;;12.06;70.46;99566.32;105652;1256;65738;-68
2023/04/20 10:24:52;;;;;;;6.10;2.90;;;;;;;12.05;70.33;99568.13;105617;1260;60481;-70
2023/04/20 10:27:20;;;;;;;8.30;2.50;;;;;;;12.04;70.26;99569.66;105668;1259;65484;-70
2023/04/20 10:29:48;;;;;;;9.10;2.50;;;;;;;12.03;70.22;99575.72;105626;1254;60400;-72
2023/04/20 10:32:27;;;;;;;6.70;2.60;;;;;;;12.03;70.27;99573.11;105437;1255;60477;-70
2023/04/20 10:35:03;;;;;;;7.60;2.30;;;;;;;12.03;70.24;99574.52;105467;1261;66646;-70
2023/04/20 10:37:33;;;;;;;12.70;2.60;;;;;;;12.04;70.20;99576.49;105620;1258;60323;-70
2023/04/20 10:40:02;;;;;;;10.80;2.80;;;;;;;12.04;70.26;99575.96;105461;1256;64315;-68
2023/04/20 10:42:44;;;;;;;8.30;3.30;;;;;;;12.05;70.30;99576.98;105542;1258;60433;-74
2023/04/20 10:45:12;;;;;;;16.40;3.40;;;;;;;12.06;70.33;99581.83;105480;1261;60309;-69
2023/04/20 10:47:41;;;;;;;19.80;4.40;;;;;;;12.07;70.29;99585.08;105642;1256;66785;-69
2023/04/20 10:50:11;;;;;;;15.30;4.20;;;;;;;12.07;70.32;99586.70;105629;1255;60632;-69
2023/04/20 10:52:40;;;;;;;11.60;4.20;;;;;;;12.08;70.33;99587.83;105531;1262;64570;-70
2023/04/20 10:55:24;;;;;;;17.80;5.00;;;;;;;12.08;70.27;99589.39;105618;1260;60604;-70
2023/04/20 10:57:53;;;;;;;15.70;4.30;;;;;;;12.09;70.38;99589.71;105587;1256;60418;-70
2023/04/20 11:00:23;;;;;;;15.30;4.50;;;;;;;12.10;70.32;99594.89;105451;1257;65928;-72
2023/04/20 11:02:53;;;;;;;21.60;4.60;;;;;;;12.10;70.37;99592.41;105537;1256;60470;-69
2023/04/20 11:05:23;;;;;;;20.00;5.00;;;;;;;12.10;70.42;99597.69;105389;1256;64293;-70
2023/04/20 11:07:58;;;;;;;17.90;5.20;;;;;;;12.10;70.34;99595.05;105593;1259;60557;-69
2023/04/20 11:10:37;;;;;;;16.40;4.60;;;;;;;12.10;70.45;99600.38;105741;1258;60381;-67
2023/04/20 11:13:06;;;;;;;20.00;4.90;;;;;;;12.09;70.48;99603.84;105745;1253;67198;-67
2023/04/20 11:15:35;;;;;;;20.00;5.10;;;;;;;12.08;70.40;99606.02;105714;1256;60467;-69
2023/04/20 11:18:07;;;;;;;26.70;5.60;;;;;;;12.06;70.37;99607.05;105523;1256;65538;-68
2023/04/20 11:20:35;;;;;;;21.30;5.60;;;;;;;12.04;70.40;99608.81;105366;1256;60309;-70
2023/04/20 11:23:06;;;;;;;18.10;4.90;;;;;;;12.03;70.51;99609.14;105598;1258;60561;-67
2023/04/20 11:25:53;;;;;;;13.80;5.00;;;;;;;12.03;70.68;99608.08;106151;1261;65437;-69
2023/04/20 11:28:22;;;;;;;16.00;5.10;;;;;;;12.02;70.67;99614.29;105659;1258;60657;-67
2023/04/20 11:30:52;;;;;;;20.90;5.20;;;;;;;12.03;70.58;99614.06;105682;1256;65641;-69
2023/04/20 11:33:27;;;;;;;23.80;5.40;;;;;;;12.02;70.62;99610.79;105503;1256;60413;-67